Time;durP1;ratioP1;P1;durP2;ratioP2;P2;SDS_P1;SDS_P2;PMS_P1;PMS_P2;Temp;Humidity;BMP_temperature;BMP_pressure;BME280_temperature;BME280_humidity;BME280_pressure;Samples;Min_cycle;Max_cycle;Signal;HPM_P1;HPM_P2
2022/04/13 00:01:36;;;;;;;16.58;9.57;;;17.30;68.80;;;;;;3900312;30;20064;-67
2022/04/13 00:03:58;;;;;;;11.02;7.88;;;17.30;68.20;;;;;;3899943;30;20067;-68
2022/04/13 00:06:20;;;;;;;12.73;8.35;;;17.20;67.80;;;;;;3899651;30;20470;-68
2022/04/13 00:08:44;;;;;;;11.18;8.25;;;17.20;67.80;;;;;;3899738;30;20060;-67
2022/04/13 00:11:07;;;;;;;12.98;8.48;;;17.20;67.80;;;;;;3898745;30;20049;-67
2022/04/13 00:13:34;;;;;;;13.15;8.48;;;17.20;67.70;;;;;;3886234;30;20119;-67
2022/04/13 00:15:56;;;;;;;11.43;8.73;;;17.30;67.70;;;;;;3899884;30;20600;-68
2022/04/13 00:18:20;;;;;;;13.18;8.52;;;17.20;68.10;;;;;;3899563;30;20414;-68
2022/04/13 00:20:42;;;;;;;10.43;7.95;;;17.20;68.40;;;;;;3900191;30;20248;-67
2022/04/13 00:23:06;;;;;;;10.65;7.43;;;17.20;68.40;;;;;;3899344;30;20387;-67
2022/04/13 00:25:29;;;;;;;10.32;7.95;;;17.20;68.50;;;;;;3899058;30;20464;-68
2022/04/13 00:27:53;;;;;;;14.40;7.97;;;17.20;69.30;;;;;;3899488;30;20144;-68
2022/04/13 00:30:15;;;;;;;10.75;7.25;;;17.20;68.30;;;;;;3899435;30;20061;-67
2022/04/13 00:32:37;;;;;;;13.43;8.02;;;17.20;68.40;;;;;;3899361;30;20056;-67
2022/04/13 00:35:02;;;;;;;10.55;7.97;;;17.20;68.40;;;;;;3883967;30;20116;-67
2022/04/13 00:37:25;;;;;;;12.07;7.78;;;17.20;68.50;;;;;;3884831;30;20453;-68
2022/04/13 00:39:47;;;;;;;11.32;8.30;;;17.20;68.50;;;;;;3884159;30;20203;-67
2022/04/13 00:42:09;;;;;;;12.85;7.88;;;17.20;68.60;;;;;;3885315;30;20057;-67
2022/04/13 00:44:35;;;;;;;11.20;7.82;;;17.20;68.60;;;;;;3886683;30;20513;-67
2022/04/13 00:47:01;;;;;;;10.88;8.10;;;17.20;68.60;;;;;;3899708;30;20053;-67
2022/04/13 00:49:24;;;;;;;9.45;7.72;;;17.20;69.40;;;;;;3899171;30;20103;-67
2022/04/13 00:51:47;;;;;;;9.98;7.65;;;17.20;68.60;;;;;;3899674;30;20053;-67
2022/04/13 00:54:13;;;;;;;10.70;7.32;;;17.20;68.70;;;;;;3899583;30;20068;-67
2022/04/13 00:56:38;;;;;;;11.35;7.88;;;17.20;68.80;;;;;;3884240;30;20064;-67
2022/04/13 00:59:05;;;;;;;10.05;7.20;;;17.20;68.70;;;;;;3886701;30;20076;-67
2022/04/13 01:01:31;;;;;;;9.48;6.65;;;17.20;68.60;;;;;;3899159;30;20532;-67
2022/04/13 01:03:54;;;;;;;9.27;7.30;;;17.20;68.70;;;;;;3899001;30;20057;-67
2022/04/13 01:06:17;;;;;;;13.27;7.35;;;17.20;68.80;;;;;;3898382;30;20540;-67
2022/04/13 01:08:40;;;;;;;7.40;6.35;;;17.20;68.90;;;;;;3898768;30;20061;-68
2022/04/13 01:11:02;;;;;;;10.65;6.85;;;17.20;68.90;;;;;;3885645;30;20057;-67
2022/04/13 01:13:27;;;;;;;7.72;6.45;;;17.20;68.80;;;;;;3884317;30;20499;-68
2022/04/13 01:15:50;;;;;;;8.77;6.68;;;17.20;68.90;;;;;;3884461;30;20092;-68
2022/04/13 01:18:14;;;;;;;7.57;6.72;;;17.20;68.90;;;;;;3884309;30;20143;-67
2022/04/13 01:20:39;;;;;;;10.43;6.80;;;17.20;69.00;;;;;;3884136;30;20111;-67
2022/04/13 01:23:02;;;;;;;8.38;6.80;;;17.20;70.00;;;;;;3897145;30;20085;-68
2022/04/13 01:25:24;;;;;;;9.38;7.40;;;17.20;69.20;;;;;;3898303;30;20053;-68
2022/04/13 01:27:47;;;;;;;7.93;6.93;;;17.10;69.10;;;;;;3898388;30;20061;-68
2022/04/13 01:30:11;;;;;;;9.00;7.28;;;17.10;69.20;;;;;;3898555;30;20137;-68
2022/04/13 01:32:33;;;;;;;7.75;6.25;;;17.20;69.20;;;;;;3897549;30;20115;-68
2022/04/13 01:34:55;;;;;;;7.22;6.53;;;17.20;69.20;;;;;;3897818;30;20057;-69
2022/04/13 01:37:19;;;;;;;7.72;6.38;;;17.20;69.20;;;;;;3898070;30;20466;-68
2022/04/13 01:39:43;;;;;;;10.85;6.45;;;17.10;69.10;;;;;;3884527;30;20375;-68
2022/04/13 01:42:05;;;;;;;7.53;6.72;;;17.10;69.20;;;;;;3897877;30;20148;-68
2022/04/13 01:44:27;;;;;;;9.98;7.22;;;17.10;69.10;;;;;;3898599;30;20395;-68
2022/04/13 01:46:49;;;;;;;8.40;6.60;;;17.10;69.10;;;;;;3898337;30;20468;-68
2022/04/13 01:49:11;;;;;;;9.48;6.78;;;17.10;69.10;;;;;;3885621;30;20060;-67
2022/04/13 01:51:33;;;;;;;10.40;7.30;;;17.10;69.20;;;;;;3898424;30;20140;-67
2022/04/13 01:53:56;;;;;;;10.60;6.80;;;17.10;69.20;;;;;;3897898;30;20159;-67
2022/04/13 01:56:19;;;;;;;7.30;6.57;;;17.10;69.20;;;;;;3898420;30;20061;-67
2022/04/13 01:58:41;;;;;;;6.85;6.15;;;17.10;69.30;;;;;;3898426;30;20080;-68
2022/04/13 02:01:04;;;;;;;7.13;6.00;;;17.10;69.30;;;;;;3897909;30;20053;-68
2022/04/13 02:03:26;;;;;;;8.38;6.97;;;17.10;69.30;;;;;;3898277;30;20064;-68
2022/04/13 02:05:49;;;;;;;7.80;6.90;;;17.10;69.30;;;;;;3897998;30;20065;-68
2022/04/13 02:08:10;;;;;;;8.63;6.70;;;17.10;69.30;;;;;;3872692;30;20523;-68
2022/04/13 02:10:32;;;;;;;7.53;6.53;;;17.10;70.30;;;;;;3897892;30;20065;-68
2022/04/13 02:12:56;;;;;;;9.38;6.63;;;17.10;69.40;;;;;;3897764;30;20119;-68
2022/04/13 02:15:18;;;;;;;11.50;6.47;;;17.10;69.40;;;;;;3898375;30;20064;-68
2022/04/13 02:17:40;;;;;;;9.10;6.82;;;17.10;70.30;;;;;;3897673;30;20068;-68
2022/04/13 02:20:03;;;;;;;11.40;6.93;;;17.10;69.40;;;;;;3897136;30;20060;-68
2022/04/13 02:22:25;;;;;;;9.57;7.18;;;17.10;69.40;;;;;;3897907;30;20063;-68
2022/04/13 02:25:08;;;;;;;13.00;7.28;;;17.10;69.50;;;;;;3897875;30;20053;-68
2022/04/13 02:27:30;;;;;;;9.73;7.00;;;17.10;69.60;;;;;;3897883;30;20128;-67
2022/04/13 02:29:53;;;;;;;11.23;6.60;;;17.10;69.50;;;;;;3897878;30;20557;-67
2022/04/13 02:32:15;;;;;;;8.90;7.18;;;17.10;69.60;;;;;;3897111;30;20069;-68
2022/04/13 02:34:38;;;;;;;10.20;6.90;;;17.00;69.60;;;;;;3884651;30;20065;-68
2022/04/13 02:37:00;;;;;;;10.05;7.25;;;17.10;69.70;;;;;;3897570;30;20057;-68
2022/04/13 02:39:23;;;;;;;9.75;7.07;;;17.10;69.70;;;;;;3897857;30;20049;-68
2022/04/13 02:41:45;;;;;;;8.90;7.03;;;17.00;69.70;;;;;;3883991;30;20057;-68
2022/04/13 02:44:07;;;;;;;8.80;6.72;;;17.00;69.70;;;;;;3897302;30;20056;-68
2022/04/13 02:46:31;;;;;;;10.70;6.93;;;17.10;69.70;;;;;;3884599;30;20056;-68
2022/04/13 02:48:53;;;;;;;8.07;6.82;;;17.00;69.70;;;;;;3897409;30;20076;-68
2022/04/13 02:51:15;;;;;;;11.30;7.90;;;17.00;69.90;;;;;;3884571;30;20061;-69
2022/04/13 02:53:37;;;;;;;11.98;7.68;;;17.00;69.70;;;;;;3897189;30;20057;-68
2022/04/13 02:56:00;;;;;;;11.77;7.57;;;17.00;69.70;;;;;;3897533;30;20138;-68
2022/04/13 02:58:22;;;;;;;9.15;7.95;;;17.00;69.70;;;;;;3897723;30;20134;-68
2022/04/13 03:00:44;;;;;;;11.30;7.93;;;17.00;69.80;;;;;;3897261;30;20485;-68
2022/04/13 03:03:08;;;;;;;11.85;7.53;;;17.00;69.80;;;;;;3897556;30;20049;-69
2022/04/13 03:05:30;;;;;;;9.40;7.60;;;17.00;69.80;;;;;;3883130;30;20053;-68
2022/04/13 03:07:52;;;;;;;9.88;7.97;;;17.00;69.90;;;;;;3882855;30;20046;-68
2022/04/13 03:10:15;;;;;;;15.18;8.13;;;17.00;69.90;;;;;;3870148;30;20058;-69
2022/04/13 03:12:37;;;;;;;10.00;8.02;;;17.00;69.90;;;;;;3889931;30;20065;-68
2022/04/13 03:15:05;;;;;;;10.98;7.90;;;17.00;70.00;;;;;;3897190;30;20056;-68
2022/04/13 03:17:28;;;;;;;12.30;8.13;;;17.00;70.80;;;;;;3897530;30;20045;-68
2022/04/13 03:19:51;;;;;;;11.13;7.95;;;17.00;70.00;;;;;;3897312;30;20045;-67
2022/04/13 03:22:13;;;;;;;13.70;9.18;;;17.00;70.10;;;;;;3897415;30;20144;-68
2022/04/13 03:24:38;;;;;;;12.40;8.43;;;16.90;70.10;;;;;;3898348;30;20065;-69
2022/04/13 03:27:01;;;;;;;13.63;8.88;;;17.00;70.10;;;;;;3887342;30;20070;-69
2022/04/13 03:29:23;;;;;;;12.23;8.52;;;17.00;70.10;;;;;;3900686;30;20390;-69
2022/04/13 03:31:45;;;;;;;10.63;8.50;;;17.00;70.20;;;;;;3899545;30;20060;-69
2022/04/13 03:34:07;;;;;;;13.05;8.60;;;17.00;70.20;;;;;;3900030;30;20498;-68
2022/04/13 03:36:30;;;;;;;13.63;8.98;;;17.00;70.20;;;;;;3899843;30;20049;-68
2022/04/13 03:38:52;;;;;;;14.35;9.27;;;17.00;70.20;;;;;;3899470;30;20057;-68
2022/04/13 03:41:14;;;;;;;14.27;9.10;;;17.00;70.30;;;;;;3899472;30;20049;-68
2022/04/13 03:43:36;;;;;;;14.23;9.57;;;16.90;70.30;;;;;;3899766;30;20064;-68
2022/04/13 03:45:58;;;;;;;11.82;8.82;;;16.90;71.10;;;;;;3899592;30;20127;-68
2022/04/13 03:48:24;;;;;;;11.82;8.93;;;17.00;70.30;;;;;;3900135;30;20136;-69
2022/04/13 03:50:46;;;;;;;14.02;9.45;;;16.90;70.30;;;;;;3898984;30;20076;-68
2022/04/13 03:53:09;;;;;;;17.15;9.70;;;16.90;70.40;;;;;;3899408;30;20071;-69
2022/04/13 03:55:32;;;;;;;17.80;10.63;;;17.00;70.50;;;;;;3899986;30;20073;-68
2022/04/13 03:57:54;;;;;;;11.90;8.73;;;17.00;70.50;;;;;;3900047;30;20053;-68
2022/04/13 04:00:16;;;;;;;15.30;10.05;;;16.90;70.40;;;;;;3899403;30;20144;-68
2022/04/13 04:02:39;;;;;;;15.32;9.70;;;16.90;70.50;;;;;;3899370;30;20425;-69
2022/04/13 04:05:02;;;;;;;15.60;9.63;;;16.90;70.70;;;;;;3899439;30;20061;-68
2022/04/13 04:07:26;;;;;;;14.88;11.40;;;16.90;70.80;;;;;;3899420;30;20111;-70
2022/04/13 04:09:50;;;;;;;15.52;11.23;;;16.90;70.70;;;;;;3899589;30;20158;-71
2022/04/13 04:12:12;;;;;;;16.60;10.95;;;16.90;70.60;;;;;;3896797;30;20057;-70
2022/04/13 04:14:35;;;;;;;20.05;11.63;;;16.90;71.50;;;;;;3898992;30;20061;-70
2022/04/13 04:16:57;;;;;;;16.35;10.95;;;16.90;70.60;;;;;;3899338;30;20521;-69
2022/04/13 04:19:19;;;;;;;17.00;10.77;;;16.90;70.60;;;;;;3899128;30;20053;-69
2022/04/13 04:21:41;;;;;;;18.63;10.80;;;16.90;70.60;;;;;;3899174;30;20060;-70
2022/04/13 04:24:04;;;;;;;14.27;10.05;;;16.90;70.60;;;;;;3899844;30;20057;-70
2022/04/13 04:26:27;;;;;;;17.77;10.15;;;16.90;70.60;;;;;;3899944;30;20049;-68
2022/04/13 04:28:49;;;;;;;15.32;10.52;;;16.90;70.70;;;;;;3899914;30;20107;-69
2022/04/13 04:31:11;;;;;;;18.02;9.98;;;16.90;70.70;;;;;;3886292;30;20126;-71
2022/04/13 04:33:34;;;;;;;16.50;10.85;;;16.90;70.70;;;;;;3899568;30;20076;-70
2022/04/13 04:35:56;;;;;;;15.35;10.65;;;16.80;71.00;;;;;;3898878;30;20056;-70
2022/04/13 04:38:18;;;;;;;18.25;10.35;;;16.90;70.90;;;;;;3899454;30;20053;-70
2022/04/13 04:40:40;;;;;;;17.80;10.88;;;16.90;71.10;;;;;;3883665;30;20461;-69
2022/04/13 04:43:03;;;;;;;15.13;10.15;;;16.90;71.10;;;;;;3885085;30;20064;-70
2022/04/13 04:45:26;;;;;;;17.13;10.38;;;16.80;71.00;;;;;;3885052;30;20394;-69
2022/04/13 04:47:49;;;;;;;18.50;10.68;;;16.90;71.00;;;;;;3884099;30;20152;-70
2022/04/13 04:50:11;;;;;;;12.52;9.68;;;16.80;71.00;;;;;;3897567;30;20063;-70
2022/04/13 04:52:33;;;;;;;14.77;9.80;;;16.90;71.10;;;;;;3885965;30;20144;-69
2022/04/13 04:54:55;;;;;;;16.45;10.20;;;16.90;71.00;;;;;;3899206;30;20037;-70
2022/04/13 04:57:17;;;;;;;14.60;10.00;;;16.80;71.00;;;;;;3898891;30;20061;-69
2022/04/13 04:59:41;;;;;;;17.88;10.98;;;16.80;71.00;;;;;;3898167;30;20071;-68
2022/04/13 05:02:03;;;;;;;16.00;10.40;;;16.90;71.10;;;;;;3899080;30;20533;-69
2022/04/13 05:04:25;;;;;;;22.70;11.23;;;16.80;71.00;;;;;;3899039;30;20538;-69
2022/04/13 05:06:48;;;;;;;14.43;10.23;;;16.80;71.10;;;;;;3898704;30;20061;-68
2022/04/13 05:09:10;;;;;;;18.63;11.18;;;16.80;71.10;;;;;;3898897;30;20471;-69
2022/04/13 05:11:32;;;;;;;13.63;10.75;;;16.80;71.10;;;;;;3899238;30;20060;-69
2022/04/13 05:13:54;;;;;;;13.43;10.50;;;16.80;71.10;;;;;;3898969;30;20485;-69
2022/04/13 05:16:19;;;;;;;18.05;11.10;;;16.80;71.20;;;;;;3899204;30;20096;-69
2022/04/13 05:18:42;;;;;;;16.20;10.70;;;16.80;71.20;;;;;;3898903;30;20057;-70
2022/04/13 05:21:05;;;;;;;16.75;11.32;;;16.80;71.20;;;;;;3898703;30;20142;-70
2022/04/13 05:23:27;;;;;;;15.10;10.77;;;16.80;71.20;;;;;;3898543;30;20067;-68
2022/04/13 05:25:50;;;;;;;20.00;11.80;;;16.80;71.30;;;;;;3898841;30;20398;-67
2022/04/13 05:28:12;;;;;;;14.43;11.60;;;16.80;71.20;;;;;;3898643;30;20494;-67
2022/04/13 05:30:34;;;;;;;18.40;11.95;;;16.80;71.30;;;;;;3899312;30;20406;-67
2022/04/13 05:32:58;;;;;;;16.10;11.18;;;16.80;71.40;;;;;;3885645;30;20162;-68
2022/04/13 05:35:21;;;;;;;16.73;10.60;;;16.80;71.40;;;;;;3898735;30;20056;-69
2022/04/13 05:37:44;;;;;;;17.08;11.02;;;16.80;71.40;;;;;;3883213;30;20061;-68
2022/04/13 05:40:07;;;;;;;17.55;11.32;;;16.90;71.70;;;;;;3884353;30;20050;-68
2022/04/13 05:42:32;;;;;;;18.67;11.55;;;16.90;71.80;;;;;;3883107;30;20065;-69
2022/04/13 05:44:54;;;;;;;17.13;11.90;;;16.80;71.60;;;;;;3883942;30;20134;-68
2022/04/13 05:47:17;;;;;;;16.05;11.15;;;16.80;71.80;;;;;;3887911;30;20508;-68
2022/04/13 05:49:40;;;;;;;17.98;11.63;;;16.90;72.10;;;;;;3898709;30;20072;-68
2022/04/13 05:52:02;;;;;;;21.48;11.60;;;16.90;73.30;;;;;;3898691;30;20390;-71
2022/04/13 05:54:24;;;;;;;20.38;11.18;;;16.80;72.90;;;;;;3898478;30;20057;-70
2022/04/13 05:56:46;;;;;;;14.55;10.73;;;16.80;73.00;;;;;;3898076;30;20053;-77
2022/04/13 05:59:09;;;;;;;17.73;11.93;;;16.90;73.10;;;;;;3898478;30;20060;-71
2022/04/13 06:01:31;;;;;;;21.75;11.65;;;16.90;73.50;;;;;;3897855;30;20048;-69
2022/04/13 06:03:53;;;;;;;18.60;12.43;;;16.90;73.70;;;;;;3901506;30;20060;-70
2022/04/13 06:06:17;;;;;;;21.33;11.63;;;16.90;73.60;;;;;;3897766;30;20057;-70
2022/04/13 06:08:39;;;;;;;18.40;11.15;;;17.00;73.40;;;;;;3894941;30;20061;-70
2022/04/13 06:11:02;;;;;;;13.77;10.70;;;17.00;73.20;;;;;;3891791;30;20090;-69
2022/04/13 06:13:24;;;;;;;18.08;12.13;;;17.00;73.10;;;;;;3897751;30;20430;-69
2022/04/13 06:15:46;;;;;;;17.17;9.63;;;17.00;72.80;;;;;;3896510;30;20494;-69
2022/04/13 06:18:08;;;;;;;16.35;10.23;;;17.00;72.70;;;;;;3897339;30;20093;-70
2022/04/13 06:20:30;;;;;;;21.10;11.65;;;17.00;72.60;;;;;;3870371;30;20177;-69
2022/04/13 06:22:54;;;;;;;23.08;12.07;;;17.00;72.60;;;;;;3883539;30;20071;-69
2022/04/13 06:25:16;;;;;;;20.55;11.73;;;16.90;72.50;;;;;;3883528;30;20131;-70
2022/04/13 06:27:39;;;;;;;19.67;10.32;;;16.90;72.50;;;;;;3883864;30;20055;-69
2022/04/13 06:30:01;;;;;;;18.85;11.07;;;17.00;72.50;;;;;;3870540;30;20054;-70
2022/04/13 06:32:31;;;;;;;22.90;11.23;;;16.90;72.50;;;;;;3883666;30;20058;-70
2022/04/13 06:34:53;;;;;;;22.40;12.20;;;17.00;72.50;;;;;;3869931;30;20053;-69
2022/04/13 06:37:15;;;;;;;19.27;11.85;;;17.00;72.30;;;;;;3895988;30;20053;-70
2022/04/13 06:39:39;;;;;;;23.98;11.18;;;17.00;72.30;;;;;;3897611;30;20052;-70
2022/04/13 06:42:01;;;;;;;15.23;10.93;;;17.10;72.30;;;;;;3897845;30;20506;-69
2022/04/13 06:44:24;;;;;;;17.42;11.65;;;17.00;72.10;;;;;;3884378;30;20061;-69
2022/04/13 06:46:46;;;;;;;17.85;10.52;;;17.00;71.90;;;;;;3884352;30;20056;-69
2022/04/13 06:49:10;;;;;;;16.88;11.05;;;17.00;71.70;;;;;;3897214;30;20557;-69
2022/04/13 06:51:33;;;;;;;18.42;11.35;;;17.10;71.80;;;;;;3897229;30;20414;-69
2022/04/13 06:53:55;;;;;;;19.60;11.50;;;17.10;71.80;;;;;;3897310;30;20572;-69
2022/04/13 06:56:19;;;;;;;23.98;12.05;;;17.10;71.80;;;;;;3897522;30;20075;-69
2022/04/13 06:58:42;;;;;;;18.48;11.00;;;17.10;71.80;;;;;;3898249;30;20414;-69
2022/04/13 07:01:04;;;;;;;16.30;10.40;;;17.10;71.60;;;;;;3885038;30;20064;-69
2022/04/13 07:03:26;;;;;;;22.15;10.88;;;17.20;71.50;;;;;;3898494;30;20057;-70
2022/04/13 07:05:49;;;;;;;24.77;10.73;;;17.20;71.30;;;;;;3899975;30;20070;-70
2022/04/13 07:08:11;;;;;;;19.60;11.48;;;17.20;71.10;;;;;;3900566;30;20460;-70
2022/04/13 07:10:34;;;;;;;16.13;11.15;;;17.20;70.90;;;;;;3900648;30;20061;-69
2022/04/13 07:12:59;;;;;;;17.27;11.13;;;17.20;70.90;;;;;;3899848;30;20045;-70
2022/04/13 07:15:22;;;;;;;18.80;11.50;;;17.30;70.90;;;;;;3900821;30;20059;-69
2022/04/13 07:17:44;;;;;;;19.80;12.02;;;17.30;70.80;;;;;;3900803;30;20064;-70
2022/04/13 07:20:07;;;;;;;23.35;11.90;;;17.30;70.80;;;;;;3900802;30;20140;-69
2022/04/13 07:22:29;;;;;;;15.77;10.93;;;17.30;70.80;;;;;;3900078;30;20072;-70
2022/04/13 07:24:52;;;;;;;17.50;9.95;;;17.30;70.60;;;;;;3898200;30;20064;-69
2022/04/13 07:27:14;;;;;;;17.77;10.57;;;17.40;70.60;;;;;;3899180;30;20063;-70
2022/04/13 07:29:38;;;;;;;14.43;10.65;;;17.40;70.40;;;;;;3900388;30;20057;-70
2022/04/13 07:32:00;;;;;;;15.35;9.38;;;17.50;70.50;;;;;;3900498;30;20053;-69
2022/04/13 07:34:22;;;;;;;16.55;10.68;;;17.40;70.30;;;;;;3898218;30;20053;-70
2022/04/13 07:36:44;;;;;;;15.63;9.23;;;17.50;70.20;;;;;;3899897;30;20053;-71
2022/04/13 07:39:07;;;;;;;14.50;9.20;;;17.50;70.10;;;;;;3900346;30;20052;-69
2022/04/13 07:41:29;;;;;;;15.48;9.07;;;17.60;70.00;;;;;;3900014;30;20053;-69
2022/04/13 07:43:51;;;;;;;15.13;8.65;;;17.60;69.90;;;;;;3887158;30;20057;-69
2022/04/13 07:46:15;;;;;;;17.40;9.50;;;17.60;69.90;;;;;;3900367;30;20498;-69
2022/04/13 07:48:38;;;;;;;13.95;9.13;;;17.70;69.90;;;;;;3900105;30;20060;-70
2022/04/13 07:51:00;;;;;;;14.77;8.68;;;17.70;69.60;;;;;;3898946;30;20135;-70
2022/04/13 07:53:22;;;;;;;16.50;9.40;;;17.70;70.60;;;;;;3898985;30;20061;-71
2022/04/13 07:55:48;;;;;;;15.85;9.90;;;17.70;69.60;;;;;;3899805;30;20096;-69
2022/04/13 07:58:11;;;;;;;16.73;9.30;;;17.70;69.70;;;;;;3886429;30;20199;-69
2022/04/13 08:00:33;;;;;;;13.85;8.93;;;17.70;69.80;;;;;;3898913;30;20119;-70
2022/04/13 08:02:57;;;;;;;19.17;9.60;;;17.70;69.80;;;;;;3899677;30;20053;-70
2022/04/13 08:05:19;;;;;;;18.95;9.25;;;17.70;70.10;;;;;;3899835;30;20052;-70
2022/04/13 08:07:41;;;;;;;15.07;9.52;;;17.70;70.00;;;;;;3899967;30;20068;-70
2022/04/13 08:10:04;;;;;;;17.48;9.55;;;17.70;70.10;;;;;;3899616;30;20114;-70
2022/04/13 08:12:29;;;;;;;14.55;9.38;;;17.70;70.20;;;;;;3899312;30;20053;-70
2022/04/13 08:14:51;;;;;;;12.40;8.98;;;17.70;70.20;;;;;;3899513;30;20075;-70
2022/04/13 08:17:14;;;;;;;15.07;10.30;;;17.70;70.30;;;;;;3899666;30;20057;-70
2022/04/13 08:19:38;;;;;;;15.63;9.55;;;17.60;70.40;;;;;;3886376;30;20413;-70
2022/04/13 08:22:00;;;;;;;20.25;10.45;;;17.60;70.50;;;;;;3886534;30;20558;-71
2022/04/13 08:24:22;;;;;;;16.33;10.82;;;17.60;70.70;;;;;;3898618;30;20092;-71
2022/04/13 08:26:45;;;;;;;18.83;10.02;;;17.60;70.70;;;;;;3899600;30;20049;-70
2022/04/13 08:29:06;;;;;;;21.60;10.80;;;17.60;70.80;;;;;;3899789;30;20148;-70
2022/04/13 08:31:29;;;;;;;18.30;11.07;;;17.60;71.00;;;;;;3899644;30;20052;-70
2022/04/13 08:33:51;;;;;;;20.08;10.95;;;17.60;71.00;;;;;;3899308;30;20554;-70
2022/04/13 08:36:15;;;;;;;15.27;9.82;;;17.60;71.00;;;;;;3884994;30;20526;-70
2022/04/13 08:38:37;;;;;;;23.30;11.48;;;17.60;70.90;;;;;;3891158;30;20092;-71
2022/04/13 08:41:01;;;;;;;20.45;10.73;;;17.60;70.90;;;;;;3886411;30;20061;-70
2022/04/13 08:43:39;;;;;;;15.52;9.73;;;17.60;70.90;;;;;;3899374;30;20061;-71
2022/04/13 08:46:07;;;;;;;14.35;10.00;;;17.60;71.00;;;;;;3899319;30;20065;-69
2022/04/13 08:48:29;;;;;;;18.50;10.52;;;17.60;71.70;;;;;;3899352;30;20056;-69
2022/04/13 08:50:57;;;;;;;16.58;10.13;;;17.60;70.80;;;;;;3886082;30;20754;-70
2022/04/13 08:53:22;;;;;;;21.98;11.32;;;17.60;70.80;;;;;;3898901;30;20136;-68
2022/04/13 08:55:52;;;;;;;25.83;10.30;;;17.60;70.70;;;;;;3899117;30;20052;-75
2022/04/13 08:58:25;;;;;;;15.00;10.05;;;17.70;70.70;;;;;;3898545;30;20395;-74
2022/04/13 09:00:51;;;;;;;16.77;9.82;;;17.70;70.60;;;;;;3898233;30;20084;-74
2022/04/13 09:03:25;;;;;;;15.52;9.98;;;17.80;70.50;;;;;;3898828;30;20061;-75
2022/04/13 09:05:50;;;;;;;19.00;11.50;;;17.80;70.30;;;;;;3898607;30;20057;-73
2022/04/13 09:08:18;;;;;;;20.83;9.50;;;17.80;70.20;;;;;;3899071;30;20057;-74
2022/04/13 09:10:42;;;;;;;19.02;8.73;;;17.80;70.00;;;;;;3898040;30;20060;-73
2022/04/13 09:13:08;;;;;;;13.45;9.15;;;17.90;70.00;;;;;;3898645;30;20513;-73
2022/04/13 09:15:31;;;;;;;13.75;9.73;;;17.90;70.70;;;;;;3884247;30;20064;-74
2022/04/13 09:17:54;;;;;;;16.38;9.88;;;18.00;69.80;;;;;;3884118;30;20050;-74
2022/04/13 09:20:17;;;;;;;17.23;9.90;;;18.00;69.80;;;;;;3871508;30;20054;-75
2022/04/13 09:22:42;;;;;;;13.88;8.95;;;18.00;70.60;;;;;;3884311;30;20061;-76
2022/04/13 09:25:06;;;;;;;14.75;9.98;;;18.00;69.60;;;;;;3887112;30;20077;-77
2022/04/13 09:27:30;;;;;;;16.80;11.40;;;18.00;69.50;;;;;;3898911;30;20061;-75
2022/04/13 09:29:52;;;;;;;15.27;10.20;;;18.10;69.50;;;;;;3886025;30;20057;-76
2022/04/13 09:32:15;;;;;;;18.30;9.50;;;18.10;69.50;;;;;;3883165;30;20061;-74
2022/04/13 09:34:36;;;;;;;15.20;10.27;;;18.10;69.50;;;;;;3884715;30;20351;-74
2022/04/13 09:37:00;;;;;;;13.43;9.50;;;18.20;69.50;;;;;;3884045;30;20202;-76
2022/04/13 09:39:22;;;;;;;12.63;8.63;;;18.20;69.30;;;;;;3885773;30;20057;-75
2022/04/13 09:41:45;;;;;;;16.95;9.88;;;18.20;70.20;;;;;;3898220;30;20049;-75
2022/04/13 09:44:15;;;;;;;12.00;8.55;;;18.30;69.30;;;;;;3898507;30;20045;-75
2022/04/13 09:46:38;;;;;;;14.15;8.65;;;18.30;69.20;;;;;;3897925;30;20061;-75
2022/04/13 09:49:11;;;;;;;15.82;8.38;;;18.40;69.10;;;;;;3897943;30;20422;-75
2022/04/13 09:51:37;;;;;;;11.82;7.43;;;18.40;69.00;;;;;;3887746;30;20056;-75
2022/04/13 09:54:06;;;;;;;8.10;6.75;;;18.40;68.80;;;;;;3898691;30;20524;-74
2022/04/13 09:56:28;;;;;;;10.63;6.95;;;18.50;68.90;;;;;;3898326;30;20128;-73
2022/04/13 09:58:50;;;;;;;14.40;8.30;;;18.50;68.60;;;;;;3898341;30;20057;-74
2022/04/13 10:01:14;;;;;;;10.93;6.88;;;18.50;68.60;;;;;;3884921;30;20128;-74
2022/04/13 10:03:36;;;;;;;10.68;5.75;;;18.60;68.40;;;;;;3883719;30;20053;-74
2022/04/13 10:05:59;;;;;;;10.48;6.38;;;18.60;68.20;;;;;;3884207;30;20053;-74
2022/04/13 10:08:23;;;;;;;10.90;7.22;;;18.60;68.10;;;;;;3884062;30;20152;-74
2022/04/13 10:10:46;;;;;;;11.93;6.75;;;18.60;68.10;;;;;;3883691;30;20057;-73
2022/04/13 10:13:08;;;;;;;10.20;6.22;;;18.60;68.00;;;;;;3885184;30;20085;-75
2022/04/13 10:15:31;;;;;;;10.27;6.82;;;18.70;67.90;;;;;;3885179;30;20077;-74
2022/04/13 10:18:05;;;;;;;11.52;6.72;;;18.70;67.80;;;;;;3884730;30;20050;-73
2022/04/13 10:20:42;;;;;;;10.50;6.30;;;18.80;67.80;;;;;;3882735;30;20060;-74
2022/04/13 10:23:05;;;;;;;10.50;6.35;;;18.80;68.10;;;;;;3888756;30;20117;-75
2022/04/13 10:25:28;;;;;;;9.55;6.95;;;18.80;67.70;;;;;;3898111;30;20053;-74
2022/04/13 10:27:57;;;;;;;8.75;6.68;;;18.80;67.40;;;;;;3898215;30;20057;-74
2022/04/13 10:30:25;;;;;;;9.80;6.50;;;18.80;67.30;;;;;;3897939;30;20055;-74
2022/04/13 10:32:57;;;;;;;10.55;7.15;;;18.90;67.10;;;;;;3898074;30;20451;-75
2022/04/13 10:35:21;;;;;;;9.57;6.63;;;18.90;67.00;;;;;;3897560;30;20148;-74
2022/04/13 10:37:43;;;;;;;9.55;6.82;;;18.90;66.90;;;;;;3898317;30;20053;-74
2022/04/13 10:40:06;;;;;;;10.70;6.90;;;18.90;66.80;;;;;;3898137;30;20053;-74
2022/04/13 10:42:33;;;;;;;8.98;6.53;;;18.90;66.80;;;;;;3898254;30;20053;-74
2022/04/13 10:45:00;;;;;;;9.93;7.53;;;19.00;66.90;;;;;;3897226;30;20049;-73
2022/04/13 10:47:31;;;;;;;10.27;7.15;;;19.00;66.90;;;;;;3897719;30;20106;-73
2022/04/13 10:49:57;;;;;;;7.13;5.78;;;19.00;67.00;;;;;;3897295;30;20820;-73
2022/04/13 10:52:28;;;;;;;8.15;5.47;;;19.00;67.00;;;;;;3896307;30;20049;-73
2022/04/13 10:54:58;;;;;;;8.30;5.15;;;19.00;67.00;;;;;;3897192;30;20064;-73
2022/04/13 10:57:22;;;;;;;7.70;4.95;;;19.10;67.80;;;;;;3897415;30;20057;-73
2022/04/13 10:59:51;;;;;;;5.85;4.97;;;19.10;66.80;;;;;;3897781;30;20107;-73
2022/04/13 11:02:27;;;;;;;8.07;5.60;;;19.20;66.70;;;;;;3897529;30;20064;-72
2022/04/13 11:04:50;;;;;;;8.05;5.35;;;19.20;67.50;;;;;;3897496;30;20060;-75
2022/04/13 11:07:12;;;;;;;15.02;6.30;;;19.30;66.60;;;;;;3884828;30;20097;-75
2022/04/13 11:09:40;;;;;;;9.30;5.35;;;19.30;66.60;;;;;;3897793;30;20154;-74
2022/04/13 11:12:03;;;;;;;16.23;5.63;;;19.30;66.60;;;;;;3897667;30;20053;-74
2022/04/13 11:14:27;;;;;;;13.70;5.22;;;19.30;66.60;;;;;;3897314;30;20057;-75
2022/04/13 11:16:53;;;;;;;9.10;4.80;;;19.30;67.50;;;;;;3897673;30;20045;-75
2022/04/13 11:19:22;;;;;;;6.82;5.00;;;19.30;66.70;;;;;;3897448;30;20139;-67
2022/04/13 11:22:13;;;;;;;6.65;4.25;;;19.40;66.80;;;;;;3897320;30;20120;-66
2022/04/13 11:24:37;;;;;;;4.10;2.92;;;19.40;66.80;;;;;;3896784;30;20061;-67
2022/04/13 11:26:59;;;;;;;4.63;3.17;;;19.40;66.70;;;;;;3897282;30;20049;-66
2022/04/13 11:29:34;;;;;;;8.52;3.60;;;19.40;67.60;;;;;;3897555;30;20057;-66
2022/04/13 11:32:13;;;;;;;4.22;2.78;;;19.40;66.70;;;;;;3896860;30;20061;-67
2022/04/13 11:34:41;;;;;;;8.20;4.00;;;19.40;66.70;;;;;;3897245;30;20107;-68
2022/04/13 11:37:05;;;;;;;8.73;2.90;;;19.40;66.60;;;;;;3897071;30;20136;-67
2022/04/13 11:39:50;;;;;;;4.28;3.40;;;19.40;66.50;;;;;;3897073;30;20466;-68
2022/04/13 11:42:32;;;;;;;6.78;3.15;;;19.50;66.40;;;;;;3897310;30;20059;-68
2022/04/13 11:45:02;;;;;;;6.20;2.65;;;19.40;66.00;;;;;;3893532;30;20565;-68
2022/04/13 11:47:36;;;;;;;8.88;3.28;;;19.50;66.00;;;;;;3899222;30;20122;-68
2022/04/13 11:50:02;;;;;;;4.15;2.60;;;19.50;66.00;;;;;;3900224;30;20052;-69
2022/04/13 11:52:41;;;;;;;5.63;2.63;;;19.50;65.90;;;;;;3899605;30;20048;-69
2022/04/13 11:55:18;;;;;;;3.15;1.75;;;19.50;65.80;;;;;;3885575;30;20050;-70
2022/04/13 11:57:52;;;;;;;4.63;2.13;;;19.50;65.70;;;;;;3885825;30;20080;-68
2022/04/13 12:00:36;;;;;;;5.05;2.67;;;19.50;65.50;;;;;;3885524;30;20061;-69
2022/04/13 12:02:59;;;;;;;4.53;2.30;;;19.50;65.30;;;;;;3886088;30;20062;-70
2022/04/13 12:05:24;;;;;;;4.80;2.85;;;19.50;65.30;;;;;;3880865;30;20511;-68
2022/04/13 12:07:50;;;;;;;8.18;3.00;;;19.50;65.20;;;;;;3886146;30;20072;-69
2022/04/13 12:10:15;;;;;;;9.35;3.60;;;19.50;64.90;;;;;;3885511;30;20057;-69
2022/04/13 12:12:37;;;;;;;6.78;3.65;;;19.50;65.00;;;;;;3885876;30;20509;-68
2022/04/13 12:14:59;;;;;;;7.30;3.53;;;19.50;64.90;;;;;;3885789;30;20112;-69
2022/04/13 12:17:22;;;;;;;4.88;3.47;;;19.50;64.90;;;;;;3885137;30;20061;-69
2022/04/13 12:19:44;;;;;;;6.72;4.00;;;19.50;65.00;;;;;;3885470;30;20547;-69